createdAt,value
2023-03-08T00:00:17.179Z,1.58
2023-03-08T00:03:04.716Z,1.55
2023-03-08T00:05:32.446Z,1.53
2023-03-08T00:08:00.041Z,1.51
2023-03-08T00:10:27.664Z,1.50
2023-03-08T00:12:55.303Z,1.47
2023-03-08T00:15:23.065Z,1.46
2023-03-08T00:17:50.794Z,1.46
2023-03-08T00:20:18.417Z,1.46
2023-03-08T00:22:46.027Z,1.45
2023-03-08T00:25:16.497Z,1.43
2023-03-08T00:27:44.107Z,1.42
2023-03-08T00:30:12.768Z,1.42
2023-03-08T00:32:40.650Z,1.42
2023-03-08T00:35:09.009Z,1.41
2023-03-08T00:37:39.667Z,1.40
2023-03-08T00:40:08.924Z,1.38
2023-03-08T00:42:36.520Z,1.36
2023-03-08T00:45:04.330Z,1.35
2023-03-08T00:47:32.039Z,1.33
2023-03-08T00:50:00.254Z,1.31
2023-03-08T00:52:29.410Z,1.30
2023-03-08T00:54:57.032Z,1.27
2023-03-08T00:57:25.873Z,1.25
2023-03-08T00:59:54.199Z,1.23
2023-03-08T01:02:22.496Z,1.21
2023-03-08T01:04:50.114Z,1.20
2023-03-08T01:07:18.264Z,1.19
2023-03-08T01:09:46.201Z,1.17
2023-03-08T01:12:14.770Z,1.14
2023-03-08T01:14:42.342Z,1.14
2023-03-08T01:17:11.348Z,1.14
2023-03-08T01:19:41.965Z,1.13
2023-03-08T01:22:10.092Z,1.11
2023-03-08T01:24:39.424Z,1.09
2023-03-08T01:27:07.283Z,1.09
2023-03-08T01:29:34.878Z,1.08
2023-03-08T01:32:02.668Z,1.07
2023-03-08T01:34:30.330Z,1.06
2023-03-08T01:36:58.018Z,1.05
2023-03-08T01:39:25.864Z,1.04
2023-03-08T01:41:53.632Z,1.03
2023-03-08T01:44:23.000Z,1.02
2023-03-08T01:46:51.361Z,1.02
2023-03-08T01:49:43.254Z,1.00
2023-03-08T01:52:26.152Z,1.00
2023-03-08T01:55:04.045Z,0.99
2023-03-08T01:57:35.979Z,0.98
2023-03-08T02:00:10.031Z,0.98
2023-03-08T02:02:48.580Z,0.97
2023-03-08T02:05:17.618Z,0.96
2023-03-08T02:07:46.220Z,0.95
2023-03-08T02:10:14.339Z,0.95
2023-03-08T02:12:42.324Z,0.96
2023-03-08T02:15:13.713Z,0.94
2023-03-08T02:17:43.531Z,0.95
2023-03-08T02:20:28.595Z,0.95
2023-03-08T02:23:07.313Z,0.94
2023-03-08T02:25:34.915Z,0.92
2023-03-08T02:28:03.474Z,0.92
2023-03-08T02:30:33.650Z,0.92
2023-03-08T02:33:01.677Z,0.92
2023-03-08T02:35:30.363Z,0.93
2023-03-08T02:37:58.025Z,0.93
2023-03-08T02:40:25.907Z,0.93
2023-03-08T02:42:56.074Z,0.91
2023-03-08T02:45:23.718Z,0.90
2023-03-08T02:47:51.359Z,0.89
2023-03-08T02:50:19.556Z,0.88
2023-03-08T02:52:47.240Z,0.86
2023-03-08T02:55:15.034Z,0.87
2023-03-08T02:57:42.886Z,0.86
2023-03-08T03:00:11.428Z,0.87
2023-03-08T03:02:39.185Z,0.86
2023-03-08T03:05:10.898Z,0.85
2023-03-08T03:07:41.215Z,0.86
2023-03-08T03:10:12.772Z,0.84
2023-03-08T03:12:43.812Z,0.82
2023-03-08T03:15:14.013Z,0.82
2023-03-08T03:17:42.160Z,0.81
2023-03-08T03:20:10.980Z,0.81
2023-03-08T03:22:38.741Z,0.80
2023-03-08T03:25:07.375Z,0.80
2023-03-08T03:27:35.474Z,0.80
2023-03-08T03:30:04.578Z,0.80
2023-03-08T03:32:33.469Z,0.81
2023-03-08T03:35:01.333Z,0.80
2023-03-08T03:37:29.687Z,0.79
2023-03-08T03:39:57.706Z,0.79
2023-03-08T03:42:26.385Z,0.78
2023-03-08T03:45:14.004Z,0.76
2023-03-08T03:47:41.683Z,0.76
2023-03-08T03:50:10.408Z,0.77
2023-03-08T03:52:45.390Z,0.76
2023-03-08T03:55:13.068Z,0.75
2023-03-08T03:57:42.420Z,0.76
2023-03-08T04:00:13.147Z,0.77
2023-03-08T04:02:46.450Z,0.76
2023-03-08T04:05:15.244Z,0.75
2023-03-08T04:07:46.570Z,0.75
2023-03-08T04:10:14.969Z,0.75
2023-03-08T04:12:44.429Z,0.74
2023-03-08T04:15:12.122Z,0.71
2023-03-08T04:17:39.962Z,0.72
2023-03-08T04:20:08.576Z,0.71
2023-03-08T04:22:38.494Z,0.69
2023-03-08T04:25:17.849Z,0.64
2023-03-08T04:27:50.758Z,0.60
2023-03-08T04:30:21.070Z,0.57
2023-03-08T04:32:49.194Z,0.56
2023-03-08T04:35:17.327Z,0.56
2023-03-08T04:37:47.707Z,0.55
2023-03-08T04:40:17.987Z,0.55
2023-03-08T04:42:58.620Z,0.54
2023-03-08T04:45:32.195Z,0.54
2023-03-08T04:48:01.725Z,0.55
2023-03-08T04:50:31.011Z,0.57
2023-03-08T04:52:58.707Z,0.57
2023-03-08T04:55:26.880Z,0.59
2023-03-08T04:57:54.523Z,0.60
2023-03-08T05:00:22.745Z,0.62
2023-03-08T05:02:50.391Z,0.64
2023-03-08T05:05:19.196Z,0.67
2023-03-08T05:07:46.935Z,0.69
2023-03-08T05:10:14.835Z,0.69
2023-03-08T05:12:42.823Z,0.69
2023-03-08T05:15:11.191Z,0.69
2023-03-08T05:17:38.844Z,0.71
2023-03-08T05:20:07.520Z,0.71
2023-03-08T05:22:55.142Z,0.71
2023-03-08T05:25:25.982Z,0.71
2023-03-08T05:27:54.066Z,0.70
2023-03-08T05:30:22.122Z,0.71
2023-03-08T05:32:49.993Z,0.71
2023-03-08T05:35:17.772Z,0.73
2023-03-08T05:37:46.496Z,0.73
2023-03-08T05:40:14.275Z,0.73
2023-03-08T05:42:42.869Z,0.74
2023-03-08T05:45:11.495Z,0.73
2023-03-08T05:47:40.116Z,0.72
2023-03-08T05:50:09.794Z,0.72
2023-03-08T05:52:39.040Z,0.72
2023-03-08T05:55:07.140Z,0.72
2023-03-08T05:57:36.622Z,0.71
2023-03-08T06:00:04.905Z,0.72
2023-03-08T06:02:43.364Z,0.71
2023-03-08T06:05:11.825Z,0.69
2023-03-08T06:07:39.791Z,0.68
2023-03-08T06:10:10.909Z,0.68
2023-03-08T06:12:39.360Z,0.69
2023-03-08T06:15:09.004Z,0.71
2023-03-08T06:17:37.858Z,0.73
2023-03-08T06:20:07.067Z,0.75
2023-03-08T06:22:35.794Z,0.76
2023-03-08T06:25:04.234Z,0.79
2023-03-08T06:27:34.998Z,0.82
2023-03-08T06:30:06.560Z,0.87
2023-03-08T06:32:36.233Z,0.92
2023-03-08T06:35:04.908Z,0.95
2023-03-08T06:37:34.767Z,1.00
2023-03-08T06:40:04.830Z,1.14
2023-03-08T06:42:41.122Z,1.27
2023-03-08T06:45:11.015Z,1.32
2023-03-08T06:47:38.641Z,1.38
2023-03-08T06:50:06.889Z,1.41
2023-03-08T06:52:37.843Z,1.44
2023-03-08T06:55:06.663Z,1.49
2023-03-08T06:57:34.404Z,1.52
2023-03-08T07:00:02.232Z,1.46
2023-03-08T07:02:29.921Z,1.44
2023-03-08T07:04:57.519Z,1.45
2023-03-08T07:07:25.121Z,1.45
2023-03-08T07:10:01.516Z,1.48
2023-03-08T07:12:36.714Z,1.50
2023-03-08T07:15:04.740Z,1.50
2023-03-08T07:17:34.744Z,1.48
2023-03-08T07:20:06.804Z,1.47
2023-03-08T07:22:34.471Z,1.47
2023-03-08T07:25:02.093Z,1.46
2023-03-08T07:27:29.915Z,1.43
2023-03-08T07:29:57.727Z,1.39
2023-03-08T07:32:28.885Z,1.36
2023-03-08T07:34:57.126Z,1.35
2023-03-08T07:37:24.810Z,1.34
2023-03-08T07:39:52.486Z,1.31
2023-03-08T07:42:20.084Z,1.29
2023-03-08T07:44:54.253Z,1.34
2023-03-08T07:47:21.862Z,1.37
2023-03-08T07:49:49.533Z,1.38
2023-03-08T07:52:17.216Z,1.39
2023-03-08T07:54:44.921Z,1.41
2023-03-08T07:57:14.181Z,1.44
2023-03-08T07:59:42.397Z,1.49
2023-03-08T08:02:14.443Z,1.54
2023-03-08T08:04:42.487Z,1.60
2023-03-08T08:07:15.279Z,1.71
2023-03-08T08:09:42.984Z,1.80
2023-03-08T08:12:11.058Z,1.84
2023-03-08T08:14:38.961Z,1.89
2023-03-08T08:17:06.673Z,1.97
2023-03-08T08:19:34.303Z,2.16
2023-03-08T08:22:02.273Z,2.28
2023-03-08T08:24:30.974Z,2.28
2023-03-08T08:26:58.768Z,2.24
2023-03-08T08:29:26.498Z,2.23
2023-03-08T08:31:54.419Z,2.23
2023-03-08T08:34:22.028Z,2.25
2023-03-08T08:36:49.842Z,2.31
2023-03-08T08:39:17.494Z,2.27
2023-03-08T08:41:45.089Z,2.17
2023-03-08T08:44:12.671Z,2.07
2023-03-08T08:46:40.673Z,2.06
2023-03-08T08:49:08.307Z,2.11
2023-03-08T08:51:36.046Z,2.16
2023-03-08T08:54:03.792Z,2.23
2023-03-08T08:56:31.687Z,2.35
2023-03-08T08:59:02.117Z,2.48
2023-03-08T09:01:32.204Z,2.53
2023-03-08T09:04:00.490Z,2.58
2023-03-08T09:06:30.992Z,2.69
2023-03-08T09:08:59.367Z,2.72
2023-03-08T09:11:27.840Z,2.69
2023-03-08T09:13:55.887Z,2.72
2023-03-08T09:16:31.549Z,2.77
2023-03-08T09:19:00.960Z,2.76
2023-03-08T09:21:28.936Z,2.72
2023-03-08T09:24:00.372Z,2.74
2023-03-08T09:26:32.439Z,2.77
2023-03-08T09:29:04.912Z,2.84
2023-03-08T09:31:34.656Z,2.83
2023-03-08T09:34:04.748Z,2.86
2023-03-08T09:36:32.429Z,3.02
2023-03-08T09:39:00.108Z,3.15
2023-03-08T09:41:55.980Z,3.17
2023-03-08T09:44:26.428Z,3.18
2023-03-08T09:47:02.583Z,3.24
2023-03-08T09:49:32.344Z,3.36
2023-03-08T09:52:15.096Z,3.47
2023-03-08T09:54:42.767Z,3.45
2023-03-08T09:57:21.317Z,3.39
2023-03-08T10:00:00.559Z,3.37
2023-03-08T10:02:57.057Z,3.41
2023-03-08T10:05:33.682Z,3.43
2023-03-08T10:08:35.675Z,3.49
2023-03-08T10:11:13.511Z,3.45
2023-03-08T10:13:43.110Z,3.48
2023-03-08T10:16:25.347Z,3.51
2023-03-08T10:19:07.458Z,3.47
2023-03-08T10:21:38.090Z,3.43
2023-03-08T10:24:30.329Z,3.47
2023-03-08T10:27:04.789Z,3.46
2023-03-08T10:29:32.620Z,3.49
2023-03-08T10:32:00.548Z,3.57
2023-03-08T10:34:32.178Z,3.69
2023-03-08T10:37:02.737Z,3.75
2023-03-08T10:39:30.514Z,3.70
2023-03-08T10:42:02.868Z,3.66
2023-03-08T10:44:36.518Z,3.58
2023-03-08T10:47:19.292Z,3.53
2023-03-08T10:49:47.550Z,3.53
2023-03-08T10:52:26.026Z,3.58
2023-03-08T10:55:18.336Z,3.69
2023-03-08T10:58:03.902Z,3.81
2023-03-08T11:00:37.472Z,4.01
2023-03-08T11:03:17.575Z,4.20
2023-03-08T11:05:59.426Z,4.37
2023-03-08T11:08:31.393Z,4.46
2023-03-08T11:11:00.831Z,4.61
2023-03-08T11:13:37.767Z,4.75
2023-03-08T11:16:27.289Z,4.81
2023-03-08T11:19:21.126Z,4.78
2023-03-08T11:21:56.396Z,4.76
2023-03-08T11:24:39.871Z,4.67
2023-03-08T11:27:41.460Z,4.54
2023-03-08T11:30:24.383Z,4.43
2023-03-08T11:33:30.270Z,4.40
2023-03-08T11:36:13.266Z,4.26
2023-03-08T11:38:42.306Z,4.17
2023-03-08T11:41:34.732Z,4.20
2023-03-08T11:44:19.160Z,4.25
2023-03-08T11:47:13.756Z,4.26
2023-03-08T11:50:14.517Z,4.25
2023-03-08T11:52:55.452Z,4.27
2023-03-08T11:55:45.243Z,4.23
2023-03-08T11:58:37.900Z,4.20
2023-03-08T12:01:52.317Z,4.23
2023-03-08T12:04:27.154Z,4.18
2023-03-08T12:06:56.489Z,4.13
2023-03-08T12:09:31.854Z,4.11
2023-03-08T12:12:16.451Z,4.08
2023-03-08T12:14:51.738Z,4.07
2023-03-08T12:17:26.127Z,4.08
2023-03-08T12:19:54.006Z,4.10
2023-03-08T12:22:28.656Z,4.10
2023-03-08T12:24:59.114Z,4.13
2023-03-08T12:27:50.591Z,4.19
2023-03-08T12:30:56.333Z,4.18
2023-03-08T12:33:26.286Z,4.15
2023-03-08T12:35:58.064Z,4.12
2023-03-08T12:38:45.801Z,4.09
2023-03-08T12:41:28.787Z,4.07
2023-03-08T12:44:04.341Z,4.03
2023-03-08T12:47:02.170Z,3.99
2023-03-08T12:49:36.801Z,3.94
2023-03-08T12:52:07.473Z,3.91
2023-03-08T12:54:36.045Z,3.91
2023-03-08T12:57:15.867Z,3.92
2023-03-08T12:59:44.693Z,3.93
2023-03-08T13:02:24.437Z,3.96
2023-03-08T13:05:14.490Z,3.99
2023-03-08T13:08:06.453Z,3.99
2023-03-08T13:10:39.558Z,4.00
2023-03-08T13:13:10.234Z,4.02
2023-03-08T13:15:39.136Z,4.05
2023-03-08T13:18:08.773Z,4.06
2023-03-08T13:20:41.567Z,4.08
2023-03-08T13:23:15.741Z,4.10
2023-03-08T13:26:11.947Z,4.16
2023-03-08T13:28:47.571Z,4.24
2023-03-08T13:31:35.961Z,4.30
2023-03-08T13:34:03.907Z,4.37
2023-03-08T13:36:33.262Z,4.39
2023-03-08T13:39:07.613Z,4.38
2023-03-08T13:41:38.064Z,4.33
2023-03-08T13:44:12.962Z,4.33
2023-03-08T13:46:42.953Z,4.31
2023-03-08T13:49:23.914Z,4.24
2023-03-08T13:51:55.103Z,4.19
2023-03-08T13:54:35.267Z,4.19
2023-03-08T13:57:05.685Z,4.16
2023-03-08T13:59:34.643Z,4.15
2023-03-08T14:02:02.377Z,4.14
2023-03-08T14:04:30.667Z,4.12
2023-03-08T14:07:00.291Z,4.11
2023-03-08T14:09:28.386Z,4.11
2023-03-08T14:12:06.664Z,4.12
2023-03-08T14:14:38.392Z,4.10
2023-03-08T14:17:06.259Z,4.14
2023-03-08T14:19:39.788Z,4.17
2023-03-08T14:22:14.505Z,4.20
2023-03-08T14:24:44.221Z,4.22
2023-03-08T14:27:14.983Z,4.25
2023-03-08T14:29:44.760Z,4.27
2023-03-08T14:32:13.127Z,4.31
2023-03-08T14:34:43.756Z,4.33
2023-03-08T14:37:11.456Z,4.31
2023-03-08T14:39:44.159Z,4.32
2023-03-08T14:42:25.137Z,4.31
2023-03-08T14:44:55.797Z,4.30
2023-03-08T14:47:27.122Z,4.29
2023-03-08T14:50:14.985Z,4.26
2023-03-08T14:52:48.469Z,4.20
2023-03-08T14:55:27.020Z,4.18
2023-03-08T14:57:58.228Z,4.12
2023-03-08T15:00:29.818Z,4.06
2023-03-08T15:02:58.687Z,4.02
2023-03-08T15:05:29.415Z,3.94
2023-03-08T15:07:59.233Z,3.90
2023-03-08T15:10:31.320Z,3.86
2023-03-08T15:13:00.192Z,3.83
2023-03-08T15:15:28.088Z,3.82
2023-03-08T15:17:55.855Z,3.79
2023-03-08T15:20:25.081Z,3.77
2023-03-08T15:22:55.108Z,3.74
2023-03-08T15:25:29.578Z,3.67
2023-03-08T15:27:57.308Z,3.54
2023-03-08T15:30:27.097Z,3.44
2023-03-08T15:32:57.315Z,3.37
2023-03-08T15:35:26.223Z,3.34
2023-03-08T15:37:54.021Z,3.32
2023-03-08T15:40:29.508Z,3.29
2023-03-08T15:42:58.133Z,3.26
2023-03-08T15:45:25.833Z,3.22
2023-03-08T15:47:58.605Z,3.18
2023-03-08T15:50:26.683Z,3.14
2023-03-08T15:52:54.764Z,3.07
2023-03-08T15:55:24.018Z,3.03
2023-03-08T15:57:52.115Z,2.95
2023-03-08T16:00:22.335Z,2.90
2023-03-08T16:02:52.048Z,2.84
2023-03-08T16:05:23.245Z,2.80
2023-03-08T16:08:02.299Z,2.77
2023-03-08T16:10:33.357Z,2.74
2023-03-08T16:13:00.979Z,2.69
2023-03-08T16:15:28.596Z,2.65
2023-03-08T16:17:56.282Z,2.62
2023-03-08T16:20:23.996Z,2.59
2023-03-08T16:22:52.307Z,2.54
2023-03-08T16:25:22.443Z,2.48
2023-03-08T16:27:50.127Z,2.44
2023-03-08T16:30:17.950Z,2.39
2023-03-08T16:32:45.718Z,2.34
2023-03-08T16:35:13.482Z,2.30
2023-03-08T16:37:41.375Z,2.27
2023-03-08T16:40:09.676Z,2.25
2023-03-08T16:42:37.314Z,2.26
2023-03-08T16:45:05.856Z,2.26
2023-03-08T16:47:33.616Z,2.24
2023-03-08T16:50:01.860Z,2.21
2023-03-08T16:52:29.573Z,2.19
2023-03-08T16:54:57.332Z,2.15
2023-03-08T16:57:25.145Z,2.13
2023-03-08T16:59:52.723Z,2.11
2023-03-08T17:02:21.740Z,2.10
2023-03-08T17:04:49.707Z,2.07
2023-03-08T17:07:18.666Z,2.04
2023-03-08T17:09:46.523Z,2.01
2023-03-08T17:12:14.194Z,1.99
2023-03-08T17:14:41.818Z,1.98
2023-03-08T17:17:10.429Z,1.99
2023-03-08T17:19:40.782Z,1.97
2023-03-08T17:22:09.122Z,1.95
2023-03-08T17:24:36.934Z,1.93
2023-03-08T17:27:04.705Z,1.92
2023-03-08T17:29:32.422Z,1.91
2023-03-08T17:32:00.087Z,1.90
2023-03-08T17:34:27.863Z,1.90
2023-03-08T17:36:55.687Z,1.89
2023-03-08T17:39:23.285Z,1.87
2023-03-08T17:41:51.043Z,1.86
2023-03-08T17:44:18.628Z,1.84
2023-03-08T17:46:46.240Z,1.83
2023-03-08T17:49:16.164Z,1.82
2023-03-08T17:51:44.007Z,1.80
2023-03-08T17:54:12.041Z,1.79
2023-03-08T17:56:40.969Z,1.79
2023-03-08T17:59:13.328Z,1.78
2023-03-08T18:01:41.237Z,1.75
2023-03-08T18:04:09.663Z,1.75
2023-03-08T18:06:39.824Z,1.75
2023-03-08T18:09:13.029Z,1.74
2023-03-08T18:11:41.401Z,1.74
2023-03-08T18:14:11.494Z,1.73
2023-03-08T18:16:40.188Z,1.72
2023-03-08T18:19:08.135Z,1.69
2023-03-08T18:21:36.258Z,1.69
2023-03-08T18:24:05.160Z,1.67
2023-03-08T18:26:33.022Z,1.64
2023-03-08T18:29:00.857Z,1.64
2023-03-08T18:31:31.048Z,1.63
2023-03-08T18:33:59.147Z,1.62
2023-03-08T18:36:27.220Z,1.61
2023-03-08T18:38:55.112Z,1.60
2023-03-08T18:41:26.323Z,1.59
2023-03-08T18:43:54.885Z,1.58
2023-03-08T18:46:30.534Z,1.58
2023-03-08T18:49:00.991Z,1.57
2023-03-08T18:51:29.414Z,1.57
2023-03-08T18:53:58.251Z,1.58
2023-03-08T18:56:27.934Z,1.58
2023-03-08T18:58:58.534Z,1.58
2023-03-08T19:01:28.646Z,1.58
2023-03-08T19:03:56.623Z,1.56
2023-03-08T19:06:24.235Z,1.55
2023-03-08T19:08:52.176Z,1.53
2023-03-08T19:11:25.209Z,1.54
2023-03-08T19:13:53.257Z,1.53
2023-03-08T19:16:22.481Z,1.50
2023-03-08T19:18:53.181Z,1.52
2023-03-08T19:21:26.502Z,1.51
2023-03-08T19:23:54.357Z,1.50
2023-03-08T19:26:37.037Z,1.49
2023-03-08T19:29:17.349Z,1.49
2023-03-08T19:31:46.864Z,1.45
2023-03-08T19:34:14.999Z,1.47
2023-03-08T19:36:44.218Z,1.47
2023-03-08T19:39:21.310Z,1.47
2023-03-08T19:41:51.056Z,1.46
2023-03-08T19:44:19.694Z,1.45
2023-03-08T19:46:47.758Z,1.45
2023-03-08T19:49:18.218Z,1.45
2023-03-08T19:51:50.687Z,1.45
2023-03-08T19:54:19.127Z,1.45
2023-03-08T19:56:46.979Z,1.45
2023-03-08T19:59:14.979Z,1.45
2023-03-08T20:01:43.406Z,1.45
2023-03-08T20:04:11.492Z,1.44
2023-03-08T20:06:46.955Z,1.44
2023-03-08T20:09:23.760Z,1.42
2023-03-08T20:11:57.488Z,1.40
2023-03-08T20:14:27.791Z,1.38
2023-03-08T20:16:56.218Z,1.35
2023-03-08T20:19:24.053Z,1.34
2023-03-08T20:21:51.817Z,1.37
2023-03-08T20:24:19.521Z,1.36
2023-03-08T20:26:47.280Z,1.34
2023-03-08T20:29:15.529Z,1.35
2023-03-08T20:31:44.956Z,1.32
2023-03-08T20:34:12.570Z,1.33
2023-03-08T20:36:40.210Z,1.33
2023-03-08T20:39:08.108Z,1.34
2023-03-08T20:41:35.709Z,1.33
2023-03-08T20:44:03.510Z,1.33
2023-03-08T20:46:33.481Z,1.35
2023-03-08T20:49:01.645Z,1.35
2023-03-08T20:51:29.391Z,1.36
2023-03-08T20:53:57.638Z,1.34
2023-03-08T20:56:26.249Z,1.34
2023-03-08T20:58:56.533Z,1.34
2023-03-08T21:01:29.682Z,1.35
2023-03-08T21:03:57.352Z,1.33
2023-03-08T21:06:28.043Z,1.33
2023-03-08T21:08:56.183Z,1.33
2023-03-08T21:11:23.829Z,1.33
2023-03-08T21:13:52.024Z,1.33
2023-03-08T21:16:22.345Z,1.34
2023-03-08T21:18:51.737Z,1.33
2023-03-08T21:21:27.208Z,1.33
2023-03-08T21:23:57.621Z,1.33
2023-03-08T21:26:26.367Z,1.34
2023-03-08T21:28:56.496Z,1.34
2023-03-08T21:31:24.581Z,1.34
2023-03-08T21:33:53.594Z,1.34
2023-03-08T21:36:21.665Z,1.33
2023-03-08T21:38:53.854Z,1.33
2023-03-08T21:41:24.171Z,1.33
2023-03-08T21:43:51.893Z,1.33
2023-03-08T21:46:19.989Z,1.34
2023-03-08T21:48:48.081Z,1.33
2023-03-08T21:51:15.902Z,1.33
2023-03-08T21:53:43.752Z,1.33
2023-03-08T21:56:14.168Z,1.33
2023-03-08T21:58:42.086Z,1.33
2023-03-08T22:01:21.420Z,1.32
2023-03-08T22:03:49.843Z,1.30
2023-03-08T22:06:18.200Z,1.31
2023-03-08T22:08:46.467Z,1.29
2023-03-08T22:11:14.486Z,1.24
2023-03-08T22:13:42.959Z,1.28
2023-03-08T22:16:10.788Z,1.30
2023-03-08T22:18:38.609Z,1.30
2023-03-08T22:21:06.507Z,1.28
2023-03-08T22:23:34.208Z,1.28
2023-03-08T22:26:02.070Z,1.27
2023-03-08T22:28:29.690Z,1.26
2023-03-08T22:30:57.297Z,1.27
2023-03-08T22:33:24.924Z,1.26
2023-03-08T22:35:52.571Z,1.24
2023-03-08T22:38:20.996Z,1.24
2023-03-08T22:40:48.683Z,1.24
2023-03-08T22:43:16.471Z,1.24
2023-03-08T22:45:44.147Z,1.23
2023-03-08T22:48:11.768Z,1.24
2023-03-08T22:50:40.534Z,1.24
2023-03-08T22:53:08.138Z,1.22
2023-03-08T22:55:35.757Z,1.22
2023-03-08T22:58:03.360Z,1.21
2023-03-08T23:00:31.004Z,1.20
2023-03-08T23:02:58.718Z,1.18
2023-03-08T23:05:26.500Z,1.17
2023-03-08T23:07:54.177Z,1.17
2023-03-08T23:10:21.922Z,1.18
2023-03-08T23:12:49.545Z,1.19
2023-03-08T23:15:17.455Z,1.19
2023-03-08T23:17:45.078Z,1.19
2023-03-08T23:20:13.548Z,1.19
2023-03-08T23:22:43.324Z,1.17
2023-03-08T23:25:12.627Z,1.17
2023-03-08T23:27:40.283Z,1.16
2023-03-08T23:30:09.276Z,1.15
2023-03-08T23:32:36.990Z,1.16
2023-03-08T23:35:05.120Z,1.14
2023-03-08T23:37:32.733Z,1.13
2023-03-08T23:40:00.370Z,1.11
2023-03-08T23:42:28.035Z,1.11
2023-03-08T23:44:55.598Z,1.12
2023-03-08T23:47:23.207Z,1.11
2023-03-08T23:49:51.671Z,1.10
2023-03-08T23:52:21.019Z,1.10
2023-03-08T23:54:48.732Z,1.09
2023-03-08T23:57:16.379Z,1.07
2023-03-08T23:59:44.128Z,1.06
